Lockwood, Ohio
Current Conditions -  °F | °C
As of 1:51 AM on Monday 22 Dec 2014 (Local Time) from KYNG Reporting Station
Scattered Clouds Scattered Clouds  
Wind Chill: 16°   Ceiling: Unl
Heat Index: 25°   Visibility: 10mi
Dew Point: 20°   Wind: 9mph
Humidity: 81%   Direction: 110°ESE
Pressure: 30.15"   Gusts: NA
Location:  41.4555°N, 80.829°W
Report Text: KYNG 220651Z 11008KT 10SM SCT250 M04/M07 A3015 RMK AO2 SLP224 T10391067
Loading
Personal Weather Stations






























Interactive Weather Map New forecast layout! Learn more

10-Day Weather Forecast

Advertisements
Track Severe Weather on mobile